createdAt,value
2022-07-29T00:00:10.561Z,395.9820
2022-07-29T00:00:21.612Z,396.2170
2022-07-29T00:00:32.681Z,395.0430
2022-07-29T00:00:43.752Z,395.9820
2022-07-29T00:00:54.848Z,397.6350
2022-07-29T00:01:05.879Z,397.1610
2022-07-29T00:01:19.657Z,397.8720
2022-07-29T00:01:31.051Z,395.5120
2022-07-29T00:01:42.182Z,394.1090
2022-07-29T00:01:53.250Z,396.9250
2022-07-29T00:02:04.299Z,394.1090
2022-07-29T00:02:15.370Z,396.6880
2022-07-29T00:02:26.517Z,394.5760
2022-07-29T00:02:37.653Z,398.3470
2022-07-29T00:02:48.843Z,396.9250
2022-07-29T00:02:59.927Z,396.9250
2022-07-29T00:03:11.101Z,397.8720
2022-07-29T00:03:22.287Z,396.4530
2022-07-29T00:03:33.458Z,399.0620
2022-07-29T00:03:44.594Z,396.6880
2022-07-29T00:03:55.936Z,397.1610
2022-07-29T00:04:07.085Z,397.8720
2022-07-29T00:04:18.721Z,396.4530
2022-07-29T00:04:30.270Z,396.4530
2022-07-29T00:04:41.662Z,395.9820
2022-07-29T00:04:52.764Z,398.8240
2022-07-29T00:05:03.832Z,397.8720
2022-07-29T00:05:14.881Z,401.9490
2022-07-29T00:05:25.953Z,400.5000
2022-07-29T00:05:37.003Z,400.7410
2022-07-29T00:05:48.073Z,398.8240
2022-07-29T00:05:59.156Z,400.5000
2022-07-29T00:06:11.885Z,397.3980
2022-07-29T00:06:22.954Z,397.1610
2022-07-29T00:06:34.032Z,399.7800
2022-07-29T00:06:45.112Z,399.3010
2022-07-29T00:06:56.202Z,400.0200
2022-07-29T00:07:07.246Z,399.7800
2022-07-29T00:07:18.320Z,399.3010
2022-07-29T00:07:29.393Z,401.2230
2022-07-29T00:07:40.501Z,402.1910
2022-07-29T00:07:51.572Z,401.2230
2022-07-29T00:08:02.644Z,399.5410
2022-07-29T00:08:13.725Z,403.1640
2022-07-29T00:08:24.792Z,404.1410
2022-07-29T00:08:36.510Z,401.2230
2022-07-29T00:08:47.584Z,399.3010
2022-07-29T00:08:58.643Z,398.8240
2022-07-29T00:09:09.693Z,400.7410
2022-07-29T00:09:20.793Z,400.7410
2022-07-29T00:09:31.860Z,400.0200
2022-07-29T00:09:51.378Z,401.7070
2022-07-29T00:09:59.893Z,391.3340
2022-07-29T00:10:10.966Z,393.6440
2022-07-29T00:10:22.014Z,395.0430
2022-07-29T00:10:33.092Z,395.9820
2022-07-29T00:10:44.162Z,398.3470
2022-07-29T00:10:55.202Z,398.5850
2022-07-29T00:11:06.822Z,398.8240
2022-07-29T00:11:17.882Z,396.6880
2022-07-29T00:11:28.938Z,396.6880
2022-07-29T00:11:39.979Z,400.2600
2022-07-29T00:11:51.049Z,400.0200
2022-07-29T00:12:02.150Z,400.5000
2022-07-29T00:12:13.198Z,399.0620
2022-07-29T00:12:26.069Z,402.6770
2022-07-29T00:12:37.936Z,396.4530
2022-07-29T00:12:49.013Z,397.8720
2022-07-29T00:13:00.089Z,398.8240
2022-07-29T00:13:11.159Z,397.1610
2022-07-29T00:13:32.071Z,399.5410
2022-07-29T00:13:39.181Z,390.8750
2022-07-29T00:13:51.101Z,392.9480
2022-07-29T00:14:02.336Z,392.9480
2022-07-29T00:14:13.870Z,395.0430
2022-07-29T00:14:25.298Z,394.1090
2022-07-29T00:14:36.369Z,393.8770
2022-07-29T00:14:47.437Z,393.8770
2022-07-29T00:14:59.338Z,394.1090
2022-07-29T00:15:10.554Z,393.8770
2022-07-29T00:15:21.594Z,397.3980
2022-07-29T00:15:32.655Z,395.7470
2022-07-29T00:15:43.713Z,398.8240
2022-07-29T00:15:54.977Z,400.5000
2022-07-29T00:16:06.124Z,397.8720
2022-07-29T00:16:17.199Z,397.3980
2022-07-29T00:16:28.337Z,399.7800
2022-07-29T00:16:39.828Z,396.4530
2022-07-29T00:16:51.007Z,397.1610
2022-07-29T00:17:02.098Z,399.7800
2022-07-29T00:17:13.300Z,395.5120
2022-07-29T00:17:30.261Z,390.4180
2022-07-29T00:17:41.332Z,393.4120
2022-07-29T00:17:52.490Z,392.2550
2022-07-29T00:18:03.551Z,394.1090
2022-07-29T00:18:14.691Z,395.5120
2022-07-29T00:18:25.874Z,393.4120
2022-07-29T00:18:36.953Z,397.1610
2022-07-29T00:18:48.018Z,395.9820
2022-07-29T00:19:02.109Z,397.3980
2022-07-29T00:19:13.735Z,394.1090
2022-07-29T00:19:24.809Z,393.6440
2022-07-29T00:19:36.247Z,390.8750
2022-07-29T00:19:47.294Z,394.8090
2022-07-29T00:19:58.371Z,393.8770
2022-07-29T00:20:09.450Z,394.1090
2022-07-29T00:20:20.514Z,395.7470
2022-07-29T00:20:31.579Z,396.4530
2022-07-29T00:20:42.847Z,395.5120
2022-07-29T00:20:53.909Z,395.0430
2022-07-29T00:21:04.969Z,395.0430
2022-07-29T00:21:16.029Z,396.6880
2022-07-29T00:21:27.100Z,397.8720
2022-07-29T00:21:38.171Z,396.4530
2022-07-29T00:21:49.240Z,396.4530
2022-07-29T00:22:00.299Z,395.7470
2022-07-29T00:22:11.401Z,395.2780
2022-07-29T00:22:22.439Z,399.5410
2022-07-29T00:22:33.511Z,396.6880
2022-07-29T00:22:44.741Z,394.8090
2022-07-29T00:22:55.818Z,398.5850
2022-07-29T00:23:06.868Z,399.3010
2022-07-29T00:23:17.928Z,400.2600
2022-07-29T00:23:30.634Z,396.9250
2022-07-29T00:23:42.078Z,394.1090
2022-07-29T00:23:53.139Z,397.1610
2022-07-29T00:24:04.218Z,394.3420
2022-07-29T00:24:15.635Z,396.9250
2022-07-29T00:24:26.939Z,394.5760
2022-07-29T00:24:38.067Z,395.7470
2022-07-29T00:24:49.140Z,395.9820
2022-07-29T00:25:00.199Z,397.8720
2022-07-29T00:25:11.273Z,397.1610
2022-07-29T00:25:22.349Z,397.8720
2022-07-29T00:25:33.887Z,397.3980
2022-07-29T00:25:45.269Z,397.3980
2022-07-29T00:25:56.329Z,398.8240
2022-07-29T00:26:07.459Z,397.3980
2022-07-29T00:26:18.584Z,397.8720
2022-07-29T00:26:29.609Z,394.1090
2022-07-29T00:26:40.688Z,398.8240
2022-07-29T00:26:51.774Z,398.3470
2022-07-29T00:27:02.828Z,399.0620
2022-07-29T00:27:13.869Z,400.5000
2022-07-29T00:27:24.948Z,400.0200
2022-07-29T00:27:36.009Z,400.2600
2022-07-29T00:27:47.060Z,398.3470
2022-07-29T00:27:58.130Z,400.7410
2022-07-29T00:28:09.323Z,402.4340
2022-07-29T00:28:20.384Z,402.1910
2022-07-29T00:28:31.468Z,399.3010
2022-07-29T00:28:42.535Z,399.3010
2022-07-29T00:29:17.226Z,399.3010
2022-07-29T00:29:33.491Z,392.4860
2022-07-29T00:29:35.343Z,385.0080
2022-07-29T00:29:44.663Z,381.4840
2022-07-29T00:29:55.717Z,382.7970
2022-07-29T00:30:06.797Z,384.1200
2022-07-29T00:30:17.936Z,386.7940
2022-07-29T00:30:28.997Z,389.9610
2022-07-29T00:30:40.214Z,391.1040
2022-07-29T00:30:51.276Z,389.9610
2022-07-29T00:31:02.413Z,389.2780
2022-07-29T00:31:13.571Z,392.2550
2022-07-29T00:31:24.684Z,391.5640
2022-07-29T00:31:35.841Z,389.5050
2022-07-29T00:31:47.050Z,393.6440
2022-07-29T00:31:58.300Z,392.0240
2022-07-29T00:32:09.831Z,392.7170
2022-07-29T00:32:20.912Z,393.6440
2022-07-29T00:32:31.936Z,393.4120
2022-07-29T00:32:43.313Z,394.1090
2022-07-29T00:32:54.376Z,394.1090
2022-07-29T00:33:08.994Z,394.3420
2022-07-29T00:33:20.486Z,388.1450
2022-07-29T00:33:31.557Z,391.7940
2022-07-29T00:33:42.618Z,391.7940
2022-07-29T00:33:53.685Z,391.3340
2022-07-29T00:34:04.791Z,392.2550
2022-07-29T00:34:16.228Z,394.1090
2022-07-29T00:34:27.404Z,392.0240
2022-07-29T00:34:38.472Z,394.1090
2022-07-29T00:34:49.674Z,392.9480
2022-07-29T00:35:00.740Z,394.8090
2022-07-29T00:35:12.251Z,393.6440
2022-07-29T00:35:23.353Z,393.4120
2022-07-29T00:35:34.432Z,393.6440
2022-07-29T00:35:45.621Z,393.4120
2022-07-29T00:35:56.681Z,393.6440
2022-07-29T00:36:08.350Z,394.5760
2022-07-29T00:36:19.422Z,395.0430
2022-07-29T00:36:30.489Z,392.2550
2022-07-29T00:36:41.529Z,395.5120
2022-07-29T00:36:52.591Z,396.4530
2022-07-29T00:37:03.629Z,397.3980
2022-07-29T00:37:14.702Z,398.3470
2022-07-29T00:37:26.010Z,396.6880
2022-07-29T00:37:37.048Z,393.4120
2022-07-29T00:37:48.249Z,396.9250
2022-07-29T00:37:59.327Z,396.6880
2022-07-29T00:38:10.392Z,396.6880
2022-07-29T00:38:21.460Z,398.3470
2022-07-29T00:38:32.515Z,399.5410
2022-07-29T00:38:43.574Z,400.7410
2022-07-29T00:38:54.661Z,397.8720
2022-07-29T00:39:05.762Z,396.2170
2022-07-29T00:39:16.830Z,397.6350
2022-07-29T00:39:27.887Z,399.7800
2022-07-29T00:39:40.069Z,396.6880
2022-07-29T00:39:51.229Z,397.3980
2022-07-29T00:40:02.299Z,398.3470
2022-07-29T00:40:13.360Z,398.8240
2022-07-29T00:40:24.398Z,398.8240
2022-07-29T00:40:35.470Z,399.3010
2022-07-29T00:40:46.551Z,399.7800
2022-07-29T00:40:57.616Z,403.6520
2022-07-29T00:41:08.669Z,400.7410
2022-07-29T00:41:19.716Z,400.0200
2022-07-29T00:41:30.755Z,401.4650
2022-07-29T00:41:45.105Z,397.6350
2022-07-29T00:41:56.176Z,394.5760
2022-07-29T00:42:07.255Z,396.9250
2022-07-29T00:42:18.314Z,398.1090
2022-07-29T00:42:29.387Z,399.5410
2022-07-29T00:42:40.466Z,402.4340
2022-07-29T00:42:51.515Z,400.2600
2022-07-29T00:43:02.585Z,400.2600
2022-07-29T00:43:13.675Z,397.6350
2022-07-29T00:43:24.737Z,402.9200
2022-07-29T00:43:35.806Z,399.5410
2022-07-29T00:43:46.876Z,400.5000
2022-07-29T00:43:57.937Z,401.9490
2022-07-29T00:44:09.014Z,400.0200
2022-07-29T00:44:20.071Z,401.7070
2022-07-29T00:44:31.136Z,400.7410
2022-07-29T00:44:42.217Z,400.7410
2022-07-29T00:44:53.354Z,402.9200
2022-07-29T00:45:04.446Z,403.8970
2022-07-29T00:45:15.516Z,402.9200
2022-07-29T00:45:26.574Z,403.6520
2022-07-29T00:45:37.659Z,402.1910
2022-07-29T00:45:48.721Z,401.4650
2022-07-29T00:45:59.790Z,400.5000
2022-07-29T00:46:10.886Z,403.1640
2022-07-29T00:46:21.974Z,403.4080
2022-07-29T00:46:33.118Z,404.3860
2022-07-29T00:46:44.208Z,403.8970
2022-07-29T00:46:55.326Z,403.6520
2022-07-29T00:47:06.763Z,401.4650
2022-07-29T00:47:17.824Z,401.4650
2022-07-29T00:47:28.875Z,400.2600
2022-07-29T00:47:39.965Z,401.7070
2022-07-29T00:47:51.029Z,404.8770
2022-07-29T00:48:02.076Z,401.2230
2022-07-29T00:48:13.252Z,407.3510
2022-07-29T00:48:24.327Z,404.6320
2022-07-29T00:48:35.409Z,405.6160
2022-07-29T00:48:46.605Z,403.6520
2022-07-29T00:48:57.675Z,402.6770
2022-07-29T00:49:08.776Z,404.6320
2022-07-29T00:49:19.956Z,404.1410
2022-07-29T00:49:31.442Z,403.6520
2022-07-29T00:49:42.626Z,404.6320
2022-07-29T00:49:53.699Z,402.4340
2022-07-29T00:50:05.226Z,403.4080
2022-07-29T00:50:16.464Z,405.1230
2022-07-29T00:50:27.596Z,405.6160
2022-07-29T00:50:38.644Z,404.6320
2022-07-29T00:50:49.715Z,403.8970
2022-07-29T00:51:00.765Z,403.1640
2022-07-29T00:51:11.835Z,402.1910
2022-07-29T00:51:22.887Z,404.6320
2022-07-29T00:51:33.944Z,404.1410
2022-07-29T00:51:45.585Z,403.1640
2022-07-29T00:51:57.407Z,401.4650
2022-07-29T00:52:08.478Z,406.6060
2022-07-29T00:52:19.533Z,403.6520
2022-07-29T00:52:30.593Z,401.7070
2022-07-29T00:52:41.734Z,402.9200
2022-07-29T00:52:52.822Z,404.6320
2022-07-29T00:53:03.891Z,403.6520
2022-07-29T00:53:14.942Z,404.1410
2022-07-29T00:53:25.991Z,403.6520
2022-07-29T00:53:38.440Z,404.1410
2022-07-29T00:53:49.808Z,403.6520
2022-07-29T00:54:00.856Z,406.1100
2022-07-29T00:54:12.038Z,403.4080
2022-07-29T00:54:23.158Z,404.3860
2022-07-29T00:54:34.228Z,402.4340
2022-07-29T00:54:45.332Z,403.8970
2022-07-29T00:54:56.395Z,406.1100
2022-07-29T00:55:08.807Z,405.6160
2022-07-29T00:55:20.095Z,401.4650
2022-07-29T00:55:31.150Z,404.6320
2022-07-29T00:55:42.206Z,403.1640
2022-07-29T00:55:53.294Z,404.1410
2022-07-29T00:56:04.412Z,405.1230
2022-07-29T00:56:15.494Z,407.1020
2022-07-29T00:56:26.564Z,404.3860
2022-07-29T00:56:37.639Z,409.3510
2022-07-29T00:56:48.706Z,404.6320
2022-07-29T00:56:59.776Z,406.1100
2022-07-29T00:57:10.850Z,404.8770
2022-07-29T00:57:22.035Z,405.1230
2022-07-29T00:57:33.090Z,407.6000
2022-07-29T00:57:44.161Z,404.6320
2022-07-29T00:57:55.229Z,409.6030
2022-07-29T00:58:06.290Z,407.3510
2022-07-29T00:58:17.362Z,407.6000
2022-07-29T00:58:28.412Z,405.3700
2022-07-29T00:58:39.481Z,409.1000
2022-07-29T00:58:50.542Z,405.6160
2022-07-29T00:59:01.601Z,408.0990
2022-07-29T00:59:12.654Z,408.8490
2022-07-29T00:59:23.719Z,408.8490
2022-07-29T00:59:35.577Z,408.0990
2022-07-29T00:59:46.760Z,409.6030
2022-07-29T00:59:57.839Z,405.8630
2022-07-29T01:00:08.924Z,406.1100
2022-07-29T01:00:20.012Z,408.0990
2022-07-29T01:00:31.138Z,408.3490
2022-07-29T01:00:42.245Z,408.8490
2022-07-29T01:00:53.449Z,406.8540
2022-07-29T01:01:04.608Z,408.3490
2022-07-29T01:01:15.798Z,408.3490
2022-07-29T01:01:26.986Z,403.1640
2022-07-29T01:01:38.098Z,407.6000
2022-07-29T01:01:49.282Z,409.1000
2022-07-29T01:02:00.437Z,407.3510
2022-07-29T01:02:11.606Z,408.8490
2022-07-29T01:02:22.790Z,409.3510
2022-07-29T01:02:33.940Z,409.8540
2022-07-29T01:02:45.059Z,406.6060
2022-07-29T01:02:56.126Z,410.6120
2022-07-29T01:03:07.188Z,406.6060
2022-07-29T01:03:18.271Z,410.8650
2022-07-29T01:03:29.350Z,407.8490
2022-07-29T01:03:40.426Z,409.3510
2022-07-29T01:03:51.480Z,408.3490
2022-07-29T01:04:02.553Z,408.3490
2022-07-29T01:04:14.018Z,408.0990
2022-07-29T01:04:25.646Z,408.5990
2022-07-29T01:04:36.688Z,409.8540
2022-07-29T01:04:47.758Z,408.0990
2022-07-29T01:04:58.842Z,410.1060
2022-07-29T01:05:09.906Z,412.3890
2022-07-29T01:05:20.949Z,410.6120
2022-07-29T01:05:50.478Z,409.1000
2022-07-29T01:05:51.455Z,404.1410
2022-07-29T01:06:03.000Z,400.5000
2022-07-29T01:06:14.063Z,402.9200
2022-07-29T01:06:25.115Z,403.6520
2022-07-29T01:06:36.191Z,402.4340
2022-07-29T01:06:47.392Z,406.3580
2022-07-29T01:06:58.469Z,405.1230
2022-07-29T01:07:10.829Z,405.3700
2022-07-29T01:07:21.892Z,402.9200
2022-07-29T01:07:32.971Z,405.6160
2022-07-29T01:07:44.040Z,407.1020
2022-07-29T01:07:55.102Z,407.8490
2022-07-29T01:08:06.161Z,408.3490
2022-07-29T01:08:17.346Z,407.6000
2022-07-29T01:08:28.389Z,407.6000
2022-07-29T01:08:39.458Z,408.0990
2022-07-29T01:08:50.673Z,408.5990
2022-07-29T01:09:01.750Z,409.6030
2022-07-29T01:09:12.849Z,406.6060
2022-07-29T01:09:46.239Z,402.6770
2022-07-29T01:09:46.415Z,406.8540
2022-07-29T01:09:57.863Z,391.7940
2022-07-29T01:10:08.941Z,397.8720
2022-07-29T01:10:20.283Z,399.7800
2022-07-29T01:10:31.344Z,398.3470
2022-07-29T01:10:42.397Z,400.7410
2022-07-29T01:10:53.454Z,401.4650
2022-07-29T01:11:05.803Z,400.7410
2022-07-29T01:11:16.861Z,402.6770
2022-07-29T01:11:27.914Z,405.1230
2022-07-29T01:11:38.983Z,404.6320
2022-07-29T01:11:50.044Z,403.8970
2022-07-29T01:12:01.115Z,403.1640
2022-07-29T01:12:12.185Z,405.1230
2022-07-29T01:12:23.405Z,402.1910
2022-07-29T01:12:34.466Z,407.1020
2022-07-29T01:12:45.539Z,404.3860
2022-07-29T01:12:56.604Z,408.3490
2022-07-29T01:13:08.549Z,407.6000
2022-07-29T01:13:19.706Z,407.6000
2022-07-29T01:13:30.794Z,405.6160
2022-07-29T01:13:41.855Z,408.5990
2022-07-29T01:13:53.040Z,407.1020
2022-07-29T01:14:04.099Z,408.5990
2022-07-29T01:14:15.427Z,410.3590
2022-07-29T01:14:26.790Z,406.6060
2022-07-29T01:14:37.885Z,410.6120
2022-07-29T01:14:48.926Z,409.8540
2022-07-29T01:14:59.988Z,407.8490
2022-07-29T01:15:11.105Z,408.5990
2022-07-29T01:15:22.242Z,406.6060
2022-07-29T01:15:33.298Z,411.3710
2022-07-29T01:15:49.010Z,411.3710
2022-07-29T01:16:01.361Z,402.9200
2022-07-29T01:16:12.450Z,403.1640
2022-07-29T01:16:23.524Z,405.6160
2022-07-29T01:16:34.659Z,409.8540
2022-07-29T01:16:45.837Z,406.3580
2022-07-29T01:16:56.900Z,407.1020
2022-07-29T01:17:07.965Z,403.4080
2022-07-29T01:17:19.019Z,407.1020
2022-07-29T01:17:30.077Z,407.3510
2022-07-29T01:17:41.139Z,414.1820
2022-07-29T01:17:58.100Z,401.9490
2022-07-29T01:18:09.139Z,402.4340
2022-07-29T01:18:22.192Z,402.9200
2022-07-29T01:18:34.091Z,403.1640
2022-07-29T01:18:45.340Z,403.6520
2022-07-29T01:18:56.403Z,404.6320
2022-07-29T01:19:07.445Z,403.4080
2022-07-29T01:19:18.515Z,402.4340
2022-07-29T01:19:29.594Z,406.6060
2022-07-29T01:19:40.658Z,407.6000
2022-07-29T01:19:51.714Z,409.1000
2022-07-29T01:20:02.811Z,409.6030
2022-07-29T01:20:13.883Z,408.5990
2022-07-29T01:20:24.949Z,407.3510
2022-07-29T01:20:41.910Z,403.4080
2022-07-29T01:20:52.985Z,401.2230
2022-07-29T01:21:04.042Z,404.1410
2022-07-29T01:21:15.111Z,402.1910
2022-07-29T01:21:26.159Z,407.3510
2022-07-29T01:21:37.254Z,406.6060
2022-07-29T01:21:48.439Z,407.3510
2022-07-29T01:21:59.491Z,408.0990
2022-07-29T01:22:10.592Z,408.0990
2022-07-29T01:22:21.659Z,408.3490
2022-07-29T01:22:32.708Z,408.5990
2022-07-29T01:22:43.769Z,407.3510
2022-07-29T01:22:54.852Z,409.1000
2022-07-29T01:23:05.915Z,410.8650
2022-07-29T01:23:17.122Z,408.3490
2022-07-29T01:23:28.192Z,408.0990
2022-07-29T01:23:39.310Z,409.8540
2022-07-29T01:23:50.378Z,410.8650
2022-07-29T01:24:01.431Z,412.1340
2022-07-29T01:24:12.708Z,410.3590
2022-07-29T01:24:23.992Z,412.9000
2022-07-29T01:24:35.040Z,410.6120
2022-07-29T01:24:46.104Z,409.1000
2022-07-29T01:24:57.220Z,410.8650
2022-07-29T01:25:08.297Z,413.4120
2022-07-29T01:25:19.542Z,412.1340
2022-07-29T01:25:30.584Z,411.6250
2022-07-29T01:25:41.646Z,411.1180
2022-07-29T01:25:56.145Z,408.8490
2022-07-29T01:26:08.064Z,408.0990
2022-07-29T01:26:20.450Z,406.8540
2022-07-29T01:26:32.492Z,409.3510
2022-07-29T01:26:43.644Z,406.6060
2022-07-29T01:26:54.705Z,409.6030
2022-07-29T01:27:05.764Z,407.1020
2022-07-29T01:27:18.212Z,410.1060
2022-07-29T01:27:29.520Z,407.6000
2022-07-29T01:27:41.028Z,408.5990
2022-07-29T01:27:53.533Z,407.1020
2022-07-29T01:28:04.600Z,409.8540
2022-07-29T01:28:16.240Z,409.1000
2022-07-29T01:28:28.120Z,407.3510
2022-07-29T01:28:39.389Z,407.8490
2022-07-29T01:28:52.213Z,405.6160
2022-07-29T01:29:06.094Z,407.8490
2022-07-29T01:29:20.240Z,400.0200
2022-07-29T01:29:38.773Z,401.4650
2022-07-29T01:29:49.710Z,396.4530
2022-07-29T01:30:01.281Z,395.5120
2022-07-29T01:30:16.317Z,392.7170
2022-07-29T01:30:27.810Z,395.2780
2022-07-29T01:30:38.950Z,398.3470
2022-07-29T01:30:50.229Z,396.9250
2022-07-29T01:31:04.201Z,395.9820
2022-07-29T01:31:23.728Z,394.1090
2022-07-29T01:31:33.579Z,392.0240
2022-07-29T01:32:00.670Z,388.5970
2022-07-29T01:32:04.620Z,382.7970
2022-07-29T01:32:27.674Z,388.1450
2022-07-29T01:32:32.713Z,381.9200
2022-07-29T01:32:43.868Z,386.7940
2022-07-29T01:32:54.940Z,386.3460
2022-07-29T01:33:06.009Z,390.4180
2022-07-29T01:33:17.099Z,391.1040
2022-07-29T01:33:28.557Z,395.7470
2022-07-29T01:33:39.631Z,394.1090
2022-07-29T01:33:50.684Z,396.2170
2022-07-29T01:34:01.741Z,399.7800
2022-07-29T01:34:13.359Z,399.7800
2022-07-29T01:34:24.733Z,399.5410
2022-07-29T01:34:35.779Z,401.2230
2022-07-29T01:34:46.995Z,399.0620
2022-07-29T01:34:59.735Z,399.7800
2022-07-29T01:35:10.796Z,403.1640
2022-07-29T01:35:21.853Z,400.0200
2022-07-29T01:35:32.971Z,402.9200
2022-07-29T01:35:44.014Z,402.9200
2022-07-29T01:35:55.076Z,403.6520
2022-07-29T01:36:06.134Z,406.3580
2022-07-29T01:36:17.362Z,406.1100
2022-07-29T01:36:28.417Z,403.8970
2022-07-29T01:36:39.486Z,404.3860
2022-07-29T01:36:50.597Z,405.1230
2022-07-29T01:37:01.665Z,407.6000
2022-07-29T01:37:12.746Z,408.0990
2022-07-29T01:37:23.825Z,406.6060
2022-07-29T01:37:34.907Z,408.5990
2022-07-29T01:37:45.976Z,409.8540
2022-07-29T01:37:57.041Z,410.8650
2022-07-29T01:38:08.110Z,409.6030
2022-07-29T01:38:19.312Z,408.5990
2022-07-29T01:38:30.417Z,411.3710
2022-07-29T01:38:41.475Z,408.5990
2022-07-29T01:38:52.523Z,411.6250
2022-07-29T01:39:03.602Z,412.6440
2022-07-29T01:39:14.674Z,412.9000
2022-07-29T01:39:25.724Z,413.4120
2022-07-29T01:39:36.777Z,413.4120
2022-07-29T01:39:47.993Z,413.1560
2022-07-29T01:39:59.064Z,413.4120
2022-07-29T01:40:10.133Z,414.1820
2022-07-29T01:40:21.419Z,410.3590
2022-07-29T01:40:32.490Z,413.1560
2022-07-29T01:40:43.651Z,411.6250
2022-07-29T01:40:54.718Z,414.6970
2022-07-29T01:41:05.770Z,415.7310
2022-07-29T01:41:16.827Z,414.9550
2022-07-29T01:41:27.882Z,416.7710
2022-07-29T01:41:38.928Z,416.7710
2022-07-29T01:41:50.000Z,415.4720
2022-07-29T01:42:01.068Z,416.7710
2022-07-29T01:42:12.142Z,413.1560
2022-07-29T01:42:23.327Z,414.1820
2022-07-29T01:42:34.409Z,417.2920
2022-07-29T01:42:45.460Z,416.2500
2022-07-29T01:42:56.529Z,417.2920
2022-07-29T01:43:07.590Z,416.5100
2022-07-29T01:43:18.687Z,416.7710
2022-07-29T01:43:29.728Z,419.6560
2022-07-29T01:43:40.810Z,414.1820
2022-07-29T01:43:51.982Z,413.6680
2022-07-29T01:44:03.067Z,416.2500
2022-07-29T01:44:14.424Z,417.2920
2022-07-29T01:44:26.093Z,413.9250
2022-07-29T01:44:37.158Z,416.2500
2022-07-29T01:44:48.213Z,417.8150
2022-07-29T01:44:59.280Z,416.5100
2022-07-29T01:45:10.319Z,417.5540
2022-07-29T01:45:21.378Z,420.9810
2022-07-29T01:45:32.427Z,416.7710
2022-07-29T01:45:43.469Z,419.6560
2022-07-29T01:45:54.571Z,415.7310
2022-07-29T01:46:05.700Z,418.0770
2022-07-29T01:46:16.778Z,423.1170
2022-07-29T01:46:28.050Z,422.0460
2022-07-29T01:46:39.251Z,419.9200
2022-07-29T01:46:50.417Z,418.6020
2022-07-29T01:47:01.568Z,420.1850
2022-07-29T01:47:12.628Z,422.3140
2022-07-29T01:47:23.690Z,420.4500
2022-07-29T01:47:35.697Z,421.7790
2022-07-29T01:47:47.003Z,421.7790
2022-07-29T01:47:58.058Z,420.4500
2022-07-29T01:48:09.131Z,420.9810
2022-07-29T01:48:20.198Z,419.9200
2022-07-29T01:48:31.260Z,422.5810
2022-07-29T01:48:42.398Z,422.5810
2022-07-29T01:48:53.502Z,420.9810
2022-07-29T01:49:04.612Z,422.8490
2022-07-29T01:49:15.724Z,426.0910
2022-07-29T01:49:26.891Z,420.9810
2022-07-29T01:49:37.929Z,423.3860
2022-07-29T01:49:48.998Z,422.0460
2022-07-29T01:50:00.079Z,423.3860
2022-07-29T01:50:11.130Z,422.0460
2022-07-29T01:50:22.284Z,423.1170
2022-07-29T01:50:33.322Z,424.1940
2022-07-29T01:50:44.391Z,425.0050
2022-07-29T01:50:55.485Z,426.6370
2022-07-29T01:51:06.563Z,423.3860
2022-07-29T01:51:17.663Z,423.6550
2022-07-29T01:51:28.732Z,423.3860
2022-07-29T01:51:39.820Z,423.9240
2022-07-29T01:51:50.867Z,426.6370
2022-07-29T01:52:02.074Z,425.8190
2022-07-29T01:52:13.148Z,423.9240
2022-07-29T01:52:24.217Z,423.6550
2022-07-29T01:52:35.242Z,424.4640
2022-07-29T01:52:46.280Z,425.8190
2022-07-29T01:52:57.340Z,425.2760
2022-07-29T01:53:08.402Z,426.3640
2022-07-29T01:53:19.553Z,427.7310
2022-07-29T01:53:37.705Z,425.8190
2022-07-29T01:53:47.602Z,422.8490
2022-07-29T01:53:58.651Z,415.9910
2022-07-29T01:54:09.714Z,421.7790
2022-07-29T01:54:20.931Z,421.7790
2022-07-29T01:54:31.992Z,421.5130
2022-07-29T01:54:43.061Z,422.5810
2022-07-29T01:54:54.122Z,423.1170
2022-07-29T01:55:05.192Z,425.2760
2022-07-29T01:55:16.271Z,424.1940
2022-07-29T01:55:27.321Z,425.2760
2022-07-29T01:55:38.387Z,424.7340
2022-07-29T01:55:49.453Z,428.0060
2022-07-29T01:56:00.547Z,426.3640
2022-07-29T01:56:11.602Z,424.7340
2022-07-29T01:56:22.812Z,426.3640
2022-07-29T01:56:33.863Z,426.0910
2022-07-29T01:56:44.972Z,428.0060
2022-07-29T01:56:56.044Z,425.5480
2022-07-29T01:57:07.103Z,425.8190
2022-07-29T01:57:19.585Z,423.9240
2022-07-29T01:57:30.651Z,428.8320
2022-07-29T01:57:41.717Z,428.0060
2022-07-29T01:57:52.791Z,429.6610
2022-07-29T01:58:03.842Z,425.8190
2022-07-29T01:58:14.916Z,428.2810
2022-07-29T01:58:26.151Z,429.9380
2022-07-29T01:58:37.197Z,430.7710
2022-07-29T01:58:48.246Z,430.2150
2022-07-29T01:58:59.313Z,426.3640
2022-07-29T01:59:10.603Z,433.2900
2022-07-29T01:59:21.616Z,431.3280
2022-07-29T01:59:32.681Z,431.3280
2022-07-29T01:59:43.753Z,426.3640
2022-07-29T01:59:55.166Z,430.2150
2022-07-29T02:00:06.233Z,429.3840
2022-07-29T02:00:17.341Z,431.6070
2022-07-29T02:00:28.367Z,430.7710
2022-07-29T02:00:39.432Z,431.8870
2022-07-29T02:00:54.762Z,424.1940
2022-07-29T02:01:05.851Z,425.5480
2022-07-29T02:01:16.922Z,427.1830
2022-07-29T02:01:28.212Z,429.3840
2022-07-29T02:01:39.325Z,428.5560
2022-07-29T02:01:50.440Z,428.5560
2022-07-29T02:02:05.754Z,419.3920
2022-07-29T02:02:16.909Z,423.6550
2022-07-29T02:02:28.124Z,424.4640
2022-07-29T02:02:39.190Z,429.1080
2022-07-29T02:02:50.274Z,424.7340
2022-07-29T02:03:01.317Z,429.3840
2022-07-29T02:03:12.390Z,426.3640
2022-07-29T02:03:23.461Z,428.0060
2022-07-29T02:03:34.523Z,426.3640
2022-07-29T02:03:45.607Z,426.9100
2022-07-29T02:03:56.676Z,430.2150
2022-07-29T02:04:07.759Z,424.4640
2022-07-29T02:04:28.960Z,429.9380
2022-07-29T02:04:35.883Z,421.7790
2022-07-29T02:04:46.918Z,423.6550
2022-07-29T02:04:57.980Z,424.7340
2022-07-29T02:05:09.102Z,425.2760
2022-07-29T02:05:20.240Z,426.3640
2022-07-29T02:05:31.417Z,426.3640
2022-07-29T02:05:42.475Z,424.1940
2022-07-29T02:05:53.543Z,428.0060
2022-07-29T02:06:04.582Z,428.5560
2022-07-29T02:06:15.701Z,429.6610
2022-07-29T02:06:26.772Z,425.0050
2022-07-29T02:06:37.839Z,428.2810
2022-07-29T02:06:48.903Z,431.0490
2022-07-29T02:06:59.962Z,430.2150
2022-07-29T02:07:11.032Z,430.7710
2022-07-29T02:07:22.101Z,429.9380
2022-07-29T02:07:33.296Z,433.5720
2022-07-29T02:07:44.356Z,430.2150
2022-07-29T02:07:55.405Z,433.0090
2022-07-29T02:08:06.985Z,426.3640
2022-07-29T02:08:18.047Z,429.1080
2022-07-29T02:08:29.119Z,429.6610
2022-07-29T02:08:40.177Z,429.1080
2022-07-29T02:08:51.246Z,430.4930
2022-07-29T02:09:02.600Z,431.6070
2022-07-29T02:09:13.662Z,434.1360
2022-07-29T02:09:24.695Z,433.5720
2022-07-29T02:09:35.971Z,433.8540
2022-07-29T02:09:47.017Z,434.1360
2022-07-29T02:09:58.091Z,435.5540
2022-07-29T02:10:09.135Z,436.1240
2022-07-29T02:10:20.204Z,435.2700
2022-07-29T02:10:37.175Z,426.6370
2022-07-29T02:10:48.217Z,426.3640
2022-07-29T02:10:59.288Z,429.6610
2022-07-29T02:11:10.359Z,433.2900
2022-07-29T02:11:21.473Z,431.3280
2022-07-29T02:11:32.523Z,430.7710
2022-07-29T02:11:43.575Z,430.7710
2022-07-29T02:11:54.645Z,432.7280
2022-07-29T02:12:05.848Z,433.2900
2022-07-29T02:12:16.902Z,431.3280
2022-07-29T02:12:28.001Z,434.1360
2022-07-29T02:12:39.091Z,435.5540
2022-07-29T02:12:50.862Z,433.5720
2022-07-29T02:13:02.144Z,433.8540
2022-07-29T02:13:13.203Z,433.5720
2022-07-29T02:13:24.463Z,432.1670
2022-07-29T02:13:35.531Z,433.0090
2022-07-29T02:13:46.605Z,434.7020